Time;durP1;ratioP1;P1;durP2;ratioP2;P2;SDS_P1;SDS_P2;PMS_P1;PMS_P2;Temp;Humidity;BMP_temperature;BMP_pressure;BME280_temperature;BME280_humidity;BME280_pressure;Samples;Min_cycle;Max_cycle;Signal;HPM_P1;HPM_P2
2021/12/16 00:02:12;;;;;;;24.98;12.75;;;;;;;8.70;100.00;102280.47;5227373;28;20040;-78
2021/12/16 00:07:23;;;;;;;26.52;13.30;;;;;;;8.76;100.00;102277.84;5229378;28;20041;-78
2021/12/16 00:30:15;;;;;;;24.40;12.30;;;;;;;8.73;100.00;102267.44;5231983;28;20082;-76
2021/12/16 00:35:03;;;;;;;24.83;12.23;;;;;;;8.61;100.00;102285.69;5234626;28;20067;-76
2021/12/16 00:37:33;;;;;;;25.70;12.10;;;;;;;8.66;100.00;102282.22;5234633;28;20032;-76
2021/12/16 00:40:07;;;;;;;23.23;12.93;;;;;;;8.73;100.00;102272.66;5232603;28;20029;-76
2021/12/16 00:42:48;;;;;;;26.55;12.65;;;;;;;8.68;100.00;102277.88;5225476;28;20081;-76
2021/12/16 00:48:09;;;;;;;25.10;12.90;;;;;;;8.48;100.00;102284.81;5233329;28;20572;-81
2021/12/16 00:56:09;;;;;;;28.98;14.15;;;;;;;8.40;100.00;102298.72;5232101;28;20391;-78
2021/12/16 00:58:49;;;;;;;27.20;14.40;;;;;;;8.44;100.00;102303.94;5233915;28;20466;-79
2021/12/16 01:06:50;;;;;;;27.67;14.95;;;;;;;8.55;100.00;102303.94;5230005;28;20437;-80
2021/12/16 01:40:29;;;;;;;33.95;16.92;;;;;;;8.05;100.00;102302.97;5213242;28;20097;-80
2021/12/16 01:46:28;;;;;;;31.95;16.17;;;;;;;7.91;100.00;102315.06;5237059;28;20504;-78
2021/12/16 01:51:34;;;;;;;33.95;17.20;;;;;;;7.75;100.00;102306.38;5236926;28;20020;-77
2021/12/16 01:56:56;;;;;;;36.42;17.33;;;;;;;7.86;100.00;102320.25;5231125;28;20186;-79
2021/12/16 01:59:33;;;;;;;34.67;16.38;;;;;;;7.76;100.00;102318.50;5232218;28;20139;-78
2021/12/16 02:02:15;;;;;;;31.27;15.73;;;;;;;7.67;100.00;102318.47;5228312;28;20024;-78
2021/12/16 02:10:31;;;;;;;34.35;16.38;;;;;;;7.64;100.00;102307.16;5232212;28;20063;-81
2021/12/16 02:27:29;;;;;;;32.08;16.60;;;;;;;7.65;100.00;102328.00;5227924;28;20116;-85
2021/12/16 02:35:47;;;;;;;37.20;17.10;;;;;;;7.77;100.00;102332.38;5228182;28;20066;-80
2021/12/16 02:38:19;;;;;;;37.65;17.25;;;;;;;7.91;100.00;102326.34;5235179;28;20028;-82
2021/12/16 02:40:51;;;;;;;35.75;17.48;;;;;;;7.84;100.00;102316.78;5230287;28;20085;-77
2021/12/16 02:44:13;;;;;;;30.55;16.80;;;;;;;7.77;100.00;102322.84;5232331;28;20095;-81
2021/12/16 02:49:09;;;;;;;35.95;17.20;;;;;;;7.66;100.00;102310.66;5192948;28;20028;-76
2021/12/16 02:51:39;;;;;;;35.55;18.63;;;;;;;7.58;100.00;102318.44;5242019;28;20044;-77
2021/12/16 02:54:10;;;;;;;34.90;17.65;;;;;;;7.55;100.00;102313.19;5235615;28;20111;-76
2021/12/16 02:56:41;;;;;;;36.42;17.65;;;;;;;7.52;100.00;102307.97;5232679;28;20035;-83
2021/12/16 02:59:15;;;;;;;36.45;17.45;;;;;;;7.50;100.00;102307.09;5239189;28;20043;-76
2021/12/16 03:01:51;;;;;;;32.15;16.45;;;;;;;7.49;100.00;102320.97;5237802;28;20527;-82
2021/12/16 03:04:24;;;;;;;36.20;17.25;;;;;;;7.42;100.00;102315.75;5234545;28;20386;-81
2021/12/16 03:06:57;;;;;;;33.83;17.73;;;;;;;7.39;100.00;102321.78;5230951;28;20044;-82
2021/12/16 03:14:58;;;;;;;34.08;17.67;;;;;;;7.35;100.00;102330.44;5230792;28;20029;-78
2021/12/16 03:17:52;;;;;;;31.27;16.35;;;;;;;7.35;100.00;102319.19;5226556;28;20071;-80
2021/12/16 03:20:36;;;;;;;34.00;17.60;;;;;;;7.33;100.00;102324.38;5240803;28;20385;-81
2021/12/16 03:23:23;;;;;;;35.50;17.58;;;;;;;7.36;100.00;102331.31;5228292;28;20021;-77
2021/12/16 03:26:43;;;;;;;36.03;17.45;;;;;;;7.37;100.00;102318.31;5226773;28;20248;-77
2021/12/16 03:32:01;;;;;;;34.17;16.48;;;;;;;7.41;100.00;102314.00;5232956;28;20090;-77
2021/12/16 03:37:22;;;;;;;39.28;18.63;;;;;;;7.45;100.00;102320.94;5233742;28;20060;-81
2021/12/16 03:40:05;;;;;;;37.47;18.27;;;;;;;7.53;100.00;102324.47;5234871;28;20029;-81
2021/12/16 03:42:39;;;;;;;39.40;19.95;;;;;;;7.50;100.00;102320.13;5231305;28;20173;-79
2021/12/16 03:48:25;;;;;;;39.33;19.08;;;;;;;7.55;100.00;102328.81;5232202;28;20547;-79
2021/12/16 03:50:56;;;;;;;42.85;18.90;;;;;;;7.57;100.00;102324.50;5234295;28;20032;-76
2021/12/16 03:53:27;;;;;;;37.13;17.73;;;;;;;7.61;100.00;102331.44;5234323;28;20021;-81
2021/12/16 03:55:57;;;;;;;37.47;18.75;;;;;;;7.65;100.00;102335.81;5234000;28;20028;-79
2021/12/16 03:58:27;;;;;;;33.70;17.10;;;;;;;7.68;100.00;102324.53;5225841;28;20072;-77
2021/12/16 04:01:01;;;;;;;37.33;18.15;;;;;;;7.63;100.00;102329.72;5221283;28;20466;-77
2021/12/16 04:03:32;;;;;;;37.35;19.60;;;;;;;7.76;100.00;102331.53;5237912;28;20303;-76
2021/12/16 04:06:03;;;;;;;35.22;18.00;;;;;;;7.75;100.00;102321.97;5230247;28;20915;-81
2021/12/16 04:08:33;;;;;;;36.28;18.05;;;;;;;7.90;100.00;102327.22;5229861;28;20032;-78
2021/12/16 04:11:17;;;;;;;39.08;18.85;;;;;;;7.92;100.00;102330.72;5229793;28;20467;-76
2021/12/16 04:13:58;;;;;;;34.35;16.98;;;;;;;7.93;100.00;102321.16;5230867;28;20042;-76
2021/12/16 04:16:33;;;;;;;34.67;17.40;;;;;;;7.87;100.00;102321.16;5225570;28;20493;-77
2021/12/16 04:19:09;;;;;;;35.03;17.63;;;;;;;7.83;100.00;102335.00;5228190;28;20035;-82
2021/12/16 04:21:43;;;;;;;37.40;17.30;;;;;;;7.77;100.00;102338.47;5239092;28;20082;-79
2021/12/16 04:24:14;;;;;;;38.45;17.52;;;;;;;7.76;100.00;102338.44;5231523;28;20103;-80
2021/12/16 04:26:46;;;;;;;33.45;16.48;;;;;;;7.80;100.00;102337.59;5240048;28;20107;-76
2021/12/16 04:29:18;;;;;;;34.97;17.55;;;;;;;7.86;100.00;102335.03;5230039;28;20072;-76
2021/12/16 04:31:49;;;;;;;37.25;18.38;;;;;;;7.85;100.00;102334.16;5230485;28;20029;-79
2021/12/16 04:34:21;;;;;;;33.85;16.88;;;;;;;7.84;100.00;102332.41;5238698;28;20036;-82
2021/12/16 04:36:53;;;;;;;33.30;17.55;;;;;;;7.88;100.00;102333.28;5232849;28;20021;-77
2021/12/16 04:39:27;;;;;;;30.90;16.85;;;;;;;7.98;100.00;102335.94;5229493;28;20104;-78
2021/12/16 04:41:58;;;;;;;35.15;16.75;;;;;;;8.14;100.00;102342.91;5229392;28;20036;-86
2021/12/16 04:44:30;;;;;;;34.88;16.95;;;;;;;8.09;100.00;102347.25;5225654;28;20046;-78
2021/12/16 04:47:03;;;;;;;32.25;16.90;;;;;;;8.12;100.00;102347.25;5229430;28;20032;-85
2021/12/16 04:49:34;;;;;;;35.75;17.40;;;;;;;8.07;100.00;102343.75;5239169;28;20058;-78
2021/12/16 04:52:10;;;;;;;35.92;16.83;;;;;;;7.99;100.00;102348.06;5240198;28;20150;-76
2021/12/16 04:54:41;;;;;;;32.47;15.70;;;;;;;8.03;100.00;102344.63;5227602;28;20032;-78
2021/12/16 04:57:12;;;;;;;34.65;17.20;;;;;;;8.04;100.00;102345.50;5238412;28;20043;-81
2021/12/16 04:59:43;;;;;;;35.10;17.05;;;;;;;8.05;100.00;102342.88;5242080;28;20025;-79
2021/12/16 05:02:20;;;;;;;37.47;17.02;;;;;;;8.01;100.00;102346.34;5213373;28;20053;-78
2021/12/16 05:04:51;;;;;;;35.92;17.17;;;;;;;7.98;100.00;102350.66;5237874;28;20027;-78
2021/12/16 05:07:22;;;;;;;33.45;17.05;;;;;;;8.00;100.00;102348.94;5229240;28;20397;-77
2021/12/16 05:10:05;;;;;;;34.33;17.40;;;;;;;8.23;100.00;102357.72;5242318;28;20020;-79
2021/12/16 05:12:39;;;;;;;35.40;17.30;;;;;;;8.19;100.00;102351.63;5228372;28;20559;-82
2021/12/16 05:15:14;;;;;;;32.30;15.93;;;;;;;8.13;100.00;102355.94;5221578;28;20025;-78
2021/12/16 05:17:48;;;;;;;32.67;17.27;;;;;;;8.16;100.00;102362.03;5221433;28;20032;-80
2021/12/16 05:20:27;;;;;;;39.83;17.00;;;;;;;8.13;100.00;102366.34;5242135;28;20492;-77
2021/12/16 05:26:02;;;;;;;32.08;16.63;;;;;;;8.18;100.00;102369.88;5242269;28;20519;-78
2021/12/16 05:28:32;;;;;;;34.97;16.60;;;;;;;8.18;100.00;102373.34;5242379;28;20367;-78
2021/12/16 05:31:03;;;;;;;32.97;17.48;;;;;;;8.26;100.00;102374.25;5237398;28;20036;-78
2021/12/16 05:33:33;;;;;;;35.67;17.27;;;;;;;8.33;100.00;102376.00;5237181;28;20530;-76
2021/12/16 05:36:04;;;;;;;35.28;17.77;;;;;;;8.35;100.00;102389.88;5225435;28;20060;-81
2021/12/16 05:38:35;;;;;;;36.88;18.17;;;;;;;8.39;100.00;102388.16;5228310;28;20028;-79
2021/12/16 05:41:08;;;;;;;38.33;18.60;;;;;;;8.38;100.00;102396.84;5206675;28;20067;-81
2021/12/16 05:43:40;;;;;;;39.83;19.73;;;;;;;8.32;100.00;102389.88;5224531;28;20028;-77
2021/12/16 05:46:13;;;;;;;37.80;18.38;;;;;;;8.29;100.00;102389.00;5233551;28;20040;-80
2021/12/16 05:48:47;;;;;;;34.15;17.90;;;;;;;8.30;100.00;102395.94;5236112;28;20020;-79
2021/12/16 05:51:24;;;;;;;35.88;19.50;;;;;;;8.30;100.00;102403.75;5235076;28;20505;-79
2021/12/16 05:53:56;;;;;;;36.90;18.98;;;;;;;8.38;100.00;102413.34;5234718;28;20065;-78
2021/12/16 05:56:27;;;;;;;40.97;20.33;;;;;;;8.40;100.00;102419.41;5244997;28;20482;-81
2021/12/16 05:58:58;;;;;;;40.15;19.27;;;;;;;8.23;100.00;102415.88;5244946;28;20035;-81
2021/12/16 06:01:32;;;;;;;40.95;18.90;;;;;;;8.26;100.00;102418.53;5213185;28;20025;-79
2021/12/16 06:04:03;;;;;;;39.63;19.38;;;;;;;8.24;100.00;102416.78;5228825;28;20029;-81
2021/12/16 06:06:34;;;;;;;40.70;20.10;;;;;;;8.34;100.00;102422.00;5224418;28;20024;-76
2021/12/16 06:09:07;;;;;;;42.20;20.08;;;;;;;8.24;100.00;102422.84;5224449;28;20482;-82
2021/12/16 06:11:41;;;;;;;46.17;20.67;;;;;;;8.18;100.00;102427.19;5228335;28;20029;-77
2021/12/16 06:15:24;;;;;;;47.20;21.63;;;;;;;8.17;100.00;102436.69;5224338;28;20465;-80
2021/12/16 06:28:36;;;;;;;47.65;21.60;;;;;;;8.30;100.00;102443.72;5265064;28;20094;-82
2021/12/16 06:31:07;;;;;;;51.90;23.67;;;;;;;8.19;100.00;102454.97;5281222;28;20048;-82
2021/12/16 06:33:37;;;;;;;47.63;22.80;;;;;;;8.16;100.00;102450.56;5274358;28;20060;-81
2021/12/16 06:36:07;;;;;;;50.22;22.58;;;;;;;8.14;100.00;102457.50;5248885;28;20084;-81
2021/12/16 06:38:38;;;;;;;53.97;23.08;;;;;;;8.16;100.00;102458.38;5280938;28;20024;-82
2021/12/16 06:41:08;;;;;;;52.15;23.80;;;;;;;8.21;100.00;102456.69;5282052;28;20032;-79
2021/12/16 06:43:39;;;;;;;54.25;24.50;;;;;;;8.22;100.00;102462.78;5236075;28;20056;-82
2021/12/16 06:46:14;;;;;;;55.22;23.00;;;;;;;8.24;100.00;102472.31;5280577;28;20024;-81
2021/12/16 06:48:49;;;;;;;54.03;24.02;;;;;;;8.18;100.00;102472.31;5254133;28;20060;-81
2021/12/16 06:51:33;;;;;;;55.33;22.98;;;;;;;8.34;100.00;102466.31;5276462;28;20096;-81
2021/12/16 06:54:07;;;;;;;55.67;25.50;;;;;;;8.31;100.00;102473.22;5272883;28;20020;-82
2021/12/16 06:59:40;;;;;;;;;;;;;;;8.33;100.00;102480.19;5235685;28;20059;-81
2021/12/16 07:02:18;;;;;;;52.60;24.00;;;;;;;8.25;100.00;102479.28;5244678;28;19920;-81
2021/12/16 07:04:48;;;;;;;55.03;24.38;;;;;;;8.37;100.00;102481.09;5237822;28;20165;-80
2021/12/16 07:07:18;;;;;;;60.42;24.63;;;;;;;8.28;100.00;102478.44;5250922;28;20646;-80
2021/12/16 07:09:49;;;;;;;63.90;25.77;;;;;;;8.30;100.00;102482.78;5276594;28;20024;-83
2021/12/16 07:12:25;;;;;;;56.97;24.60;;;;;;;8.30;100.00;102481.91;5281273;28;20023;-82
2021/12/16 07:14:56;;;;;;;60.75;25.67;;;;;;;8.38;100.00;102488.03;5260458;28;20161;-82
2021/12/16 07:17:26;;;;;;;64.10;26.27;;;;;;;8.44;100.00;102486.31;5281846;28;20081;-81
2021/12/16 07:19:56;;;;;;;66.32;26.45;;;;;;;8.46;100.00;102489.81;5250193;28;20032;-81
2021/12/16 07:22:27;;;;;;;60.60;25.48;;;;;;;8.28;100.00;102492.34;5259469;28;20404;-82
2021/12/16 07:24:57;;;;;;;60.58;25.98;;;;;;;8.21;100.00;102490.53;5278141;28;20111;-81
2021/12/16 07:27:27;;;;;;;63.30;26.95;;;;;;;8.16;100.00;102489.63;5275708;28;20034;-82
2021/12/16 07:29:58;;;;;;;63.72;27.00;;;;;;;8.20;100.00;102499.22;5265285;28;20024;-83
2021/12/16 07:32:28;;;;;;;65.68;26.85;;;;;;;8.26;100.00;102508.81;5251329;28;20047;-82
2021/12/16 07:34:58;;;;;;;64.05;26.67;;;;;;;8.19;100.00;102513.13;5273890;28;20054;-82
2021/12/16 07:37:29;;;;;;;69.78;28.17;;;;;;;8.25;100.00;102507.91;5263362;28;20031;-81
2021/12/16 07:40:05;;;;;;;68.13;26.10;;;;;;;8.34;100.00;102512.31;5252053;28;20154;-81
2021/12/16 07:43:23;;;;;;;76.38;29.63;;;;;;;8.42;100.00;102510.63;5279760;28;20024;-82
2021/12/16 07:45:44;;;;;;;69.18;26.95;;;;;;;8.31;100.00;102512.28;5271440;28;20178;-80
2021/12/16 07:48:17;;;;;;;72.85;28.40;;;;;;;8.32;100.00;102512.31;5266898;28;20028;-81
2021/12/16 07:50:51;;;;;;;65.07;26.75;;;;;;;8.44;100.00;102514.97;5271953;28;20088;-81
2021/12/16 07:53:22;;;;;;;81.18;29.15;;;;;;;8.43;100.00;102522.78;5276651;28;20062;-81
2021/12/16 07:55:53;;;;;;;77.22;28.45;;;;;;;8.52;100.00;102518.47;5273464;28;20642;-81
2021/12/16 07:58:23;;;;;;;65.28;28.45;;;;;;;8.43;100.00;102523.66;5239563;28;20404;-81
2021/12/16 08:00:54;;;;;;;66.43;28.65;;;;;;;8.44;100.00;102525.41;5247059;28;20035;-80
2021/12/16 08:03:26;;;;;;;70.00;28.25;;;;;;;8.52;100.00;102528.91;5246669;28;20031;-81
2021/12/16 08:05:59;;;;;;;71.47;28.88;;;;;;;8.47;100.00;102527.13;5272627;28;20115;-82
2021/12/16 08:08:29;;;;;;;69.18;28.60;;;;;;;8.49;100.00;102539.31;5246381;28;20024;-81
2021/12/16 08:11:00;;;;;;;71.72;28.63;;;;;;;8.49;100.00;102539.31;5255019;28;20030;-83
2021/12/16 08:13:30;;;;;;;69.03;28.23;;;;;;;8.53;100.00;102532.41;5269891;28;20024;-81
2021/12/16 08:16:02;;;;;;;69.07;28.15;;;;;;;8.55;100.00;102544.53;5276127;28;20107;-80
2021/12/16 08:18:32;;;;;;;72.38;28.20;;;;;;;8.59;100.00;102554.09;5249027;28;20048;-79
2021/12/16 08:21:04;;;;;;;72.00;28.65;;;;;;;8.66;100.00;102555.88;5255913;28;20070;-80
2021/12/16 08:23:34;;;;;;;67.72;27.90;;;;;;;8.62;100.00;102550.66;5276172;28;20042;-81
2021/12/16 08:26:04;;;;;;;72.97;29.30;;;;;;;8.62;100.00;102561.06;5259876;28;20055;-81
2021/12/16 08:28:35;;;;;;;70.00;27.35;;;;;;;8.59;100.00;102553.25;5273681;28;20262;-81
2021/12/16 08:31:06;;;;;;;66.40;27.75;;;;;;;8.60;100.00;102553.28;5241587;28;20024;-80
2021/12/16 08:33:38;;;;;;;69.40;29.02;;;;;;;8.64;100.00;102555.00;5246315;28;20023;-79
2021/12/16 08:36:09;;;;;;;72.28;29.33;;;;;;;8.57;100.00;102553.22;5253598;28;20021;-81
2021/12/16 08:38:39;;;;;;;71.05;28.73;;;;;;;8.56;100.00;102566.28;5274706;28;20485;-81
2021/12/16 08:41:15;;;;;;;65.10;27.73;;;;;;;8.59;100.00;102574.09;5274556;28;20055;-81
2021/12/16 08:43:45;;;;;;;72.90;29.35;;;;;;;8.70;100.00;102580.25;5256339;28;20115;-82
2021/12/16 08:46:19;;;;;;;74.45;28.48;;;;;;;8.66;100.00;102581.97;5255632;28;20135;-83
2021/12/16 08:48:50;;;;;;;63.08;26.10;;;;;;;8.62;100.00;102588.03;5239718;28;20044;-81
2021/12/16 08:51:24;;;;;;;63.40;28.42;;;;;;;8.74;100.00;102580.25;5270777;28;20461;-82
2021/12/16 08:53:55;;;;;;;71.88;29.95;;;;;;;8.87;100.00;102578.56;5278516;28;20549;-84
2021/12/16 08:56:27;;;;;;;64.22;27.77;;;;;;;8.85;100.00;102577.66;5257614;28;20103;-81
2021/12/16 08:58:58;;;;;;;72.50;29.10;;;;;;;8.97;100.00;102586.44;5272668;28;20074;-81
2021/12/16 09:01:33;;;;;;;74.68;28.13;;;;;;;8.94;100.00;102586.41;5268097;28;20516;-83
2021/12/16 09:04:03;;;;;;;69.88;28.60;;;;;;;8.85;100.00;102586.38;5255546;28;20023;-82
2021/12/16 09:06:34;;;;;;;76.75;30.02;;;;;;;8.97;100.00;102580.31;5275438;28;20099;-81
2021/12/16 09:09:06;;;;;;;68.65;28.98;;;;;;;8.81;100.00;102592.44;5264312;28;20016;-81
2021/12/16 09:11:43;;;;;;;72.68;29.05;;;;;;;8.82;100.00;102588.09;5245865;28;20083;-82
2021/12/16 09:14:13;;;;;;;72.82;29.17;;;;;;;8.98;100.00;102595.09;5279458;28;20027;-82
2021/12/16 09:16:44;;;;;;;70.78;28.55;;;;;;;8.91;100.00;102598.56;5260340;28;20023;-81
2021/12/16 09:19:14;;;;;;;77.13;30.15;;;;;;;8.98;100.00;102590.78;5274207;28;20028;-80
2021/12/16 09:21:44;;;;;;;70.55;29.60;;;;;;;8.84;100.00;102586.34;5274860;28;20446;-82
2021/12/16 09:24:15;;;;;;;74.80;29.15;;;;;;;8.98;100.00;102597.72;5281447;28;20023;-81
2021/12/16 09:26:45;;;;;;;73.63;30.42;;;;;;;8.97;100.00;102606.41;5247620;28;20019;-80
2021/12/16 09:29:16;;;;;;;73.78;29.88;;;;;;;9.05;100.00;102605.56;5275889;28;20028;-82
2021/12/16 09:31:46;;;;;;;72.72;29.92;;;;;;;9.07;100.00;102598.59;5261545;28;20024;-81
2021/12/16 09:34:16;;;;;;;76.15;30.65;;;;;;;9.10;100.00;102609.03;5250338;28;20052;-82
2021/12/16 09:36:47;;;;;;;80.32;30.45;;;;;;;9.17;100.00;102609.06;5279584;28;20265;-82
2021/12/16 09:39:21;;;;;;;74.05;31.33;;;;;;;9.15;100.00;102612.56;5256000;28;20027;-82
2021/12/16 09:41:52;;;;;;;73.65;31.10;;;;;;;9.17;100.00;102610.81;5272821;28;20037;-81
2021/12/16 09:44:25;;;;;;;76.28;31.75;;;;;;;9.14;100.00;102611.66;5282099;28;20030;-81
2021/12/16 09:46:59;;;;;;;81.43;32.58;;;;;;;9.24;100.00;102616.06;5255380;28;20023;-80
2021/12/16 09:49:29;;;;;;;79.18;31.67;;;;;;;9.25;100.00;102622.13;5269664;28;20038;-80
2021/12/16 09:52:01;;;;;;;70.50;30.55;;;;;;;9.17;100.00;102622.09;5274061;28;20107;-84
2021/12/16 09:54:33;;;;;;;73.65;30.08;;;;;;;9.13;100.00;102616.91;5278140;28;20031;-81
2021/12/16 09:57:04;;;;;;;79.38;31.05;;;;;;;9.32;100.00;102622.16;5243477;28;20104;-80
2021/12/16 09:59:35;;;;;;;65.18;27.60;;;;;;;9.28;100.00;102624.78;5274784;28;20371;-82
2021/12/16 10:02:12;;;;;;;64.22;27.63;;;;;;;9.27;100.00;102626.50;5253069;28;20210;-84
2021/12/16 10:04:45;;;;;;;62.33;27.45;;;;;;;9.28;100.00;102625.63;5253454;28;20027;-84
2021/12/16 10:07:32;;;;;;;63.58;27.55;;;;;;;9.25;100.00;102627.34;5279534;28;20032;-83
2021/12/16 10:10:09;;;;;;;62.90;27.92;;;;;;;9.21;100.00;102643.88;5274068;28;20016;-81
2021/12/16 10:12:42;;;;;;;70.82;29.10;;;;;;;9.30;100.00;102651.75;5262303;28;20041;-83
2021/12/16 10:18:04;;;;;;;61.40;26.65;;;;;;;9.35;100.00;102636.94;5272081;28;20027;-82
2021/12/16 10:20:48;;;;;;;63.05;26.45;;;;;;;9.35;100.00;102632.59;5267989;28;20042;-82
2021/12/16 10:23:23;;;;;;;61.38;27.13;;;;;;;9.28;100.00;102636.06;5280033;28;20097;-84
2021/12/16 10:25:56;;;;;;;54.78;25.35;;;;;;;9.33;100.00;102634.34;5259912;28;20412;-83
2021/12/16 10:28:29;;;;;;;54.38;24.55;;;;;;;9.29;100.00;102629.97;5281548;28;20063;-84
2021/12/16 10:31:11;;;;;;;54.72;25.50;;;;;;;9.32;100.00;102639.56;5273968;28;20019;-82
2021/12/16 10:34:09;;;;;;;58.35;26.23;;;;;;;9.35;100.00;102631.75;5271126;28;20095;-82
2021/12/16 10:36:43;;;;;;;58.08;25.55;;;;;;;9.36;100.00;102636.09;5276244;28;20024;-81
2021/12/16 10:39:22;;;;;;;53.75;24.88;;;;;;;9.37;100.00;102643.94;5260417;28;20027;-82
2021/12/16 10:41:59;;;;;;;55.17;23.95;;;;;;;9.47;100.00;102640.44;5245377;28;20020;-81
2021/12/16 10:44:33;;;;;;;57.25;23.67;;;;;;;9.38;100.00;102645.69;5273496;28;20024;-83
2021/12/16 10:47:13;;;;;;;49.30;22.23;;;;;;;9.47;100.00;102652.66;5279957;28;20024;-81
2021/12/16 10:49:51;;;;;;;51.20;23.73;;;;;;;9.48;100.00;102657.00;5270791;28;20020;-82
2021/12/16 10:52:30;;;;;;;57.47;27.05;;;;;;;9.44;100.00;102652.63;5278670;28;20016;-83
2021/12/16 10:55:00;;;;;;;49.58;23.52;;;;;;;9.39;100.00;102647.41;5273144;28;20323;-83
2021/12/16 10:57:32;;;;;;;49.17;22.52;;;;;;;9.42;100.00;102644.81;5254645;28;20024;-81
2021/12/16 11:00:11;;;;;;;54.70;25.77;;;;;;;9.38;100.00;102637.84;5280037;28;20016;-80
2021/12/16 11:02:41;;;;;;;60.63;24.38;;;;;;;9.29;100.00;102636.94;5251163;28;20035;-84
2021/12/16 11:05:15;;;;;;;51.15;23.98;;;;;;;9.23;100.00;102642.13;5269747;28;20028;-81
2021/12/16 11:07:58;;;;;;;53.28;23.52;;;;;;;9.32;100.00;102647.38;5276971;28;20043;-83
2021/12/16 11:10:37;;;;;;;48.63;22.27;;;;;;;9.48;100.00;102657.00;5261837;28;20016;-82
2021/12/16 11:13:11;;;;;;;48.75;23.70;;;;;;;9.37;100.00;102656.09;5243789;28;20020;-83
2021/12/16 11:15:47;;;;;;;48.08;22.60;;;;;;;9.37;100.00;102650.88;5278084;28;20473;-81
2021/12/16 11:18:20;;;;;;;46.47;21.98;;;;;;;9.50;100.00;102650.91;5274837;28;20028;-82
2021/12/16 11:20:54;;;;;;;44.15;20.88;;;;;;;9.54;100.00;102663.09;5269429;28;20081;-81
2021/12/16 11:23:27;;;;;;;45.47;21.13;;;;;;;9.56;100.00;102663.97;5247233;28;20336;-80
2021/12/16 11:26:10;;;;;;;50.75;23.13;;;;;;;9.54;100.00;102664.84;5269698;28;20059;-82
2021/12/16 11:28:44;;;;;;;44.28;20.77;;;;;;;9.53;100.00;102656.16;5241539;28;20031;-80
2021/12/16 11:31:18;;;;;;;44.38;21.10;;;;;;;9.55;100.00;102653.53;5271130;28;20024;-82
2021/12/16 11:33:53;;;;;;;43.80;20.35;;;;;;;9.55;100.00;102656.13;5268441;28;20028;-82
2021/12/16 11:36:31;;;;;;;39.88;19.48;;;;;;;9.40;100.00;102646.53;5271378;28;20104;-79
2021/12/16 11:39:10;;;;;;;42.85;21.13;;;;;;;9.53;100.00;102652.66;5242752;28;20034;-80
2021/12/16 11:41:59;;;;;;;44.80;21.58;;;;;;;9.41;100.00;102648.28;5254191;28;20515;-81
2021/12/16 11:44:34;;;;;;;37.70;19.10;;;;;;;9.50;100.00;102657.88;5242276;28;20389;-79
2021/12/16 11:47:22;;;;;;;42.47;20.40;;;;;;;9.43;100.00;102656.97;5271177;28;20031;-81
2021/12/16 11:49:56;;;;;;;41.55;19.15;;;;;;;9.34;100.00;102658.69;5251384;28;20019;-79
2021/12/16 11:52:32;;;;;;;39.70;19.50;;;;;;;9.41;100.00;102660.44;5277310;28;20249;-81
2021/12/16 11:55:14;;;;;;;40.65;18.40;;;;;;;9.42;100.00;102668.28;5234705;28;20046;-81
2021/12/16 11:57:51;;;;;;;40.70;18.90;;;;;;;9.54;100.00;102667.44;5285734;28;20024;-82
2021/12/16 12:00:26;;;;;;;36.15;17.60;;;;;;;9.55;100.00;102675.28;5251286;28;20029;-82
2021/12/16 12:03:02;;;;;;;40.53;20.47;;;;;;;9.48;100.00;102677.88;5241476;28;20024;-81
2021/12/16 12:05:44;;;;;;;36.63;17.83;;;;;;;9.50;100.00;102678.75;5272193;28;20081;-81
2021/12/16 12:08:23;;;;;;;38.35;19.25;;;;;;;9.40;100.00;102679.59;5259624;28;20035;-81
2021/12/16 12:11:16;;;;;;;31.65;15.52;;;;;;;9.44;100.00;102681.31;5281266;28;20024;-82
2021/12/16 12:13:56;;;;;;;32.28;15.18;;;;;;;9.46;100.00;102690.06;5281203;28;20028;-82
2021/12/16 12:16:34;;;;;;;31.05;15.45;;;;;;;9.57;100.00;102691.81;5241066;28;20031;-79
2021/12/16 12:19:21;;;;;;;31.25;15.80;;;;;;;9.51;100.00;102690.94;5257347;23;20036;-79
2021/12/16 12:22:00;;;;;;;32.28;16.10;;;;;;;9.67;100.00;102696.19;5267831;28;20028;-78
2021/12/16 12:24:44;;;;;;;30.08;14.18;;;;;;;9.57;100.00;102696.16;5263378;28;20024;-79
2021/12/16 12:27:19;;;;;;;29.77;13.68;;;;;;;9.66;100.00;102694.44;5264977;28;20028;-79
2021/12/16 12:30:06;;;;;;;26.70;14.23;;;;;;;9.72;100.00;102698.81;5258655;28;20028;-78
2021/12/16 12:32:43;;;;;;;27.45;13.90;;;;;;;9.64;100.00;102687.50;5255169;28;20024;-78
2021/12/16 12:35:24;;;;;;;28.60;13.27;;;;;;;9.60;100.00;102688.34;5256125;28;20246;-78
2021/12/16 12:37:58;;;;;;;24.65;11.48;;;;;;;9.49;100.00;102695.28;5258102;28;20035;-79
2021/12/16 12:40:32;;;;;;;23.00;11.88;;;;;;;9.61;100.00;102697.91;5258223;28;20030;-79
2021/12/16 12:43:05;;;;;;;24.27;12.57;;;;;;;9.60;100.00;102690.94;5256342;28;20385;-78
2021/12/16 12:45:39;;;;;;;23.73;12.38;;;;;;;9.57;100.00;102688.34;5255027;28;20550;-78
2021/12/16 12:48:16;;;;;;;22.10;11.23;;;;;;;9.62;100.00;102694.44;5253527;28;20059;-79
2021/12/16 12:50:50;;;;;;;20.95;11.20;;;;;;;9.51;100.00;102694.41;5256106;28;20054;-80
2021/12/16 12:53:24;;;;;;;22.45;11.05;;;;;;;9.53;100.00;102692.69;5256407;28;20032;-78
2021/12/16 12:55:57;;;;;;;22.58;10.90;;;;;;;9.64;100.00;102692.72;5256861;28;20047;-79
2021/12/16 12:58:33;;;;;;;22.88;11.00;;;;;;;9.69;100.00;102696.19;5260234;28;20032;-79
2021/12/16 13:01:05;;;;;;;24.48;10.65;;;;;;;9.66;100.00;102691.81;5255826;28;20028;-79
2021/12/16 13:03:38;;;;;;;19.67;10.38;;;;;;;9.73;100.00;102695.31;5252181;28;20031;-79
2021/12/16 13:06:16;;;;;;;21.15;10.20;;;;;;;9.52;100.00;102711.81;5256047;28;20024;-78
2021/12/16 13:08:49;;;;;;;18.67;9.85;;;;;;;9.58;100.00;102710.94;5260834;28;20046;-80
2021/12/16 13:11:29;;;;;;;20.77;10.00;;;;;;;9.53;100.00;102710.06;5256668;28;20096;-79
2021/12/16 13:14:18;;;;;;;18.30;9.48;;;;;;;9.57;100.00;102715.31;5254147;28;20056;-79
2021/12/16 13:28:44;;;;;;;20.38;8.95;;;;;;;9.55;100.00;102719.66;5222609;28;20044;-79
2021/12/16 13:31:38;;;;;;;17.40;8.85;;;;;;;9.46;100.00;102730.06;5255190;28;20230;-78
2021/12/16 13:34:28;;;;;;;16.98;8.93;;;;;;;9.44;100.00;102723.09;5257984;28;20077;-79
2021/12/16 13:37:07;;;;;;;16.73;9.32;;;;;;;9.49;100.00;102724.00;5254317;28;20028;-79
2021/12/16 13:39:43;;;;;;;17.48;8.40;;;;;;;9.52;100.00;102724.00;5260019;28;20470;-79
2021/12/16 13:42:15;;;;;;;18.08;9.20;;;;;;;9.46;100.00;102730.06;5254528;28;20028;-79
2021/12/16 13:45:02;;;;;;;17.75;9.35;;;;;;;9.50;100.00;102721.38;5257916;28;20102;-79
2021/12/16 14:02:00;;;;;;;16.67;8.32;;;;;;;9.50;100.00;102704.84;5261709;28;20051;-80
2021/12/16 14:10:14;;;;;;;13.95;7.05;;;;;;;9.31;100.00;102709.13;5257261;28;20039;-79
2021/12/16 14:16:20;;;;;;;16.67;8.25;;;;;;;9.50;100.00;102717.91;5258578;28;20101;-78
2021/12/16 14:25:29;;;;;;;14.93;7.30;;;;;;;9.35;100.00;102708.28;5256851;28;20044;-79
2021/12/16 14:34:36;;;;;;;15.77;8.18;;;;;;;9.38;100.00;102720.47;5251710;28;20074;-80
2021/12/16 14:37:27;;;;;;;16.08;7.70;;;;;;;9.38;100.00;102723.97;5255383;28;20028;-79
2021/12/16 14:42:46;;;;;;;14.60;8.07;;;;;;;9.55;100.00;102734.44;5260991;28;20563;-79
2021/12/16 14:46:08;;;;;;;15.02;7.88;;;;;;;9.48;100.00;102733.56;5259868;28;20275;-80
2021/12/16 14:48:32;;;;;;;17.02;8.75;;;;;;;9.42;100.00;102732.66;5250577;28;20490;-80
2021/12/16 14:51:12;;;;;;;15.98;8.18;;;;;;;9.46;100.00;102737.03;5254738;28;20029;-79
2021/12/16 14:53:48;;;;;;;16.83;7.95;;;;;;;9.53;100.00;102744.91;5251060;28;20056;-79
2021/12/16 14:56:21;;;;;;;18.40;8.15;;;;;;;9.50;100.00;102754.44;5264233;28;21548;-79
2021/12/16 14:58:55;;;;;;;15.13;7.68;;;;;;;9.47;100.00;102759.66;5259495;28;20024;-78